sensor_id;sensor_type;location;lat;lon;timestamp;P1;durP1;ratioP1;P2;durP2;ratioP2
34134;SDS011;20410;55.578;12.968;2024-02-26T00:02:22;7.33;;;6.50;;
34134;SDS011;20410;55.578;12.968;2024-02-26T00:04:56;7.93;;;6.60;;
34134;SDS011;20410;55.578;12.968;2024-02-26T00:07:39;7.43;;;6.73;;
34134;SDS011;20410;55.578;12.968;2024-02-26T00:10:13;8.33;;;7.10;;
34134;SDS011;20410;55.578;12.968;2024-02-26T00:12:39;8.60;;;7.23;;
34134;SDS011;20410;55.578;12.968;2024-02-26T00:15:08;8.23;;;7.43;;
34134;SDS011;20410;55.578;12.968;2024-02-26T00:17:36;8.27;;;7.37;;
34134;SDS011;20410;55.578;12.968;2024-02-26T00:20:05;8.50;;;7.47;;
34134;SDS011;20410;55.578;12.968;2024-02-26T00:22:42;8.70;;;7.90;;
34134;SDS011;20410;55.578;12.968;2024-02-26T00:25:10;9.27;;;8.17;;
34134;SDS011;20410;55.578;12.968;2024-02-26T00:27:37;9.83;;;7.93;;
34134;SDS011;20410;55.578;12.968;2024-02-26T00:30:05;10.83;;;8.87;;
34134;SDS011;20410;55.578;12.968;2024-02-26T00:32:31;9.23;;;8.33;;
34134;SDS011;20410;55.578;12.968;2024-02-26T00:34:57;8.50;;;7.67;;
34134;SDS011;20410;55.578;12.968;2024-02-26T00:37:22;8.73;;;7.70;;
34134;SDS011;20410;55.578;12.968;2024-02-26T00:39:48;11.00;;;8.23;;
34134;SDS011;20410;55.578;12.968;2024-02-26T00:42:14;8.60;;;7.67;;
34134;SDS011;20410;55.578;12.968;2024-02-26T00:44:39;9.83;;;8.10;;
34134;SDS011;20410;55.578;12.968;2024-02-26T00:47:05;9.73;;;8.67;;
34134;SDS011;20410;55.578;12.968;2024-02-26T00:49:30;10.37;;;9.27;;
34134;SDS011;20410;55.578;12.968;2024-02-26T00:51:56;10.33;;;9.23;;
34134;SDS011;20410;55.578;12.968;2024-02-26T00:54:22;10.50;;;9.33;;
34134;SDS011;20410;55.578;12.968;2024-02-26T00:56:47;9.67;;;8.67;;
34134;SDS011;20410;55.578;12.968;2024-02-26T00:59:13;12.27;;;9.83;;
34134;SDS011;20410;55.578;12.968;2024-02-26T01:01:38;10.23;;;9.13;;
34134;SDS011;20410;55.578;12.968;2024-02-26T01:04:04;10.73;;;9.63;;
34134;SDS011;20410;55.578;12.968;2024-02-26T01:06:29;9.33;;;8.43;;
34134;SDS011;20410;55.578;12.968;2024-02-26T01:08:55;10.93;;;9.80;;
34134;SDS011;20410;55.578;12.968;2024-02-26T01:11:20;10.70;;;9.57;;
34134;SDS011;20410;55.578;12.968;2024-02-26T01:13:46;11.93;;;9.80;;
34134;SDS011;20410;55.578;12.968;2024-02-26T01:16:12;13.00;;;10.73;;
34134;SDS011;20410;55.578;12.968;2024-02-26T01:18:37;11.23;;;10.10;;
34134;SDS011;20410;55.578;12.968;2024-02-26T01:21:03;12.03;;;10.33;;
34134;SDS011;20410;55.578;12.968;2024-02-26T01:23:32;13.70;;;11.73;;
34134;SDS011;20410;55.578;12.968;2024-02-26T01:25:57;14.00;;;12.50;;
34134;SDS011;20410;55.578;12.968;2024-02-26T01:28:23;13.03;;;11.43;;
34134;SDS011;20410;55.578;12.968;2024-02-26T01:30:48;13.83;;;11.63;;
34134;SDS011;20410;55.578;12.968;2024-02-26T01:33:14;13.17;;;11.80;;
34134;SDS011;20410;55.578;12.968;2024-02-26T01:35:39;14.97;;;13.40;;
34134;SDS011;20410;55.578;12.968;2024-02-26T01:38:05;21.93;;;17.53;;
34134;SDS011;20410;55.578;12.968;2024-02-26T01:40:31;15.73;;;14.00;;
34134;SDS011;20410;55.578;12.968;2024-02-26T01:42:56;17.97;;;13.73;;
34134;SDS011;20410;55.578;12.968;2024-02-26T01:45:22;15.90;;;14.27;;
34134;SDS011;20410;55.578;12.968;2024-02-26T01:47:50;16.37;;;13.37;;
34134;SDS011;20410;55.578;12.968;2024-02-26T01:50:16;15.23;;;13.63;;
34134;SDS011;20410;55.578;12.968;2024-02-26T01:52:43;14.30;;;12.80;;
34134;SDS011;20410;55.578;12.968;2024-02-26T01:55:17;15.70;;;14.10;;
34134;SDS011;20410;55.578;12.968;2024-02-26T01:57:47;14.43;;;12.23;;
34134;SDS011;20410;55.578;12.968;2024-02-26T02:00:16;14.13;;;12.57;;
34134;SDS011;20410;55.578;12.968;2024-02-26T02:02:43;13.73;;;12.33;;
34134;SDS011;20410;55.578;12.968;2024-02-26T02:05:11;14.27;;;12.77;;
34134;SDS011;20410;55.578;12.968;2024-02-26T02:07:38;13.13;;;11.83;;
34134;SDS011;20410;55.578;12.968;2024-02-26T02:10:06;12.43;;;11.27;;
34134;SDS011;20410;55.578;12.968;2024-02-26T02:12:35;13.30;;;12.00;;
34134;SDS011;20410;55.578;12.968;2024-02-26T02:15:06;14.03;;;12.53;;
34134;SDS011;20410;55.578;12.968;2024-02-26T02:17:38;13.73;;;12.33;;
34134;SDS011;20410;55.578;12.968;2024-02-26T02:20:19;14.27;;;12.10;;
34134;SDS011;20410;55.578;12.968;2024-02-26T02:23:00;13.30;;;11.97;;
34134;SDS011;20410;55.578;12.968;2024-02-26T02:25:39;17.23;;;14.00;;
34134;SDS011;20410;55.578;12.968;2024-02-26T02:28:05;15.03;;;13.43;;
34134;SDS011;20410;55.578;12.968;2024-02-26T02:30:31;13.90;;;12.50;;
34134;SDS011;20410;55.578;12.968;2024-02-26T02:32:58;14.90;;;13.20;;
34134;SDS011;20410;55.578;12.968;2024-02-26T02:35:24;16.27;;;14.30;;
34134;SDS011;20410;55.578;12.968;2024-02-26T02:37:51;15.97;;;14.37;;
34134;SDS011;20410;55.578;12.968;2024-02-26T02:40:18;16.17;;;14.47;;
34134;SDS011;20410;55.578;12.968;2024-02-26T02:42:43;15.00;;;13.50;;
34134;SDS011;20410;55.578;12.968;2024-02-26T02:45:09;17.87;;;15.30;;
34134;SDS011;20410;55.578;12.968;2024-02-26T02:47:38;16.37;;;14.03;;
34134;SDS011;20410;55.578;12.968;2024-02-26T02:50:04;16.30;;;14.70;;
34134;SDS011;20410;55.578;12.968;2024-02-26T02:52:30;17.23;;;14.90;;
34134;SDS011;20410;55.578;12.968;2024-02-26T02:54:56;20.77;;;15.97;;
34134;SDS011;20410;55.578;12.968;2024-02-26T02:57:21;14.93;;;13.53;;
34134;SDS011;20410;55.578;12.968;2024-02-26T02:59:47;14.00;;;12.60;;
34134;SDS011;20410;55.578;12.968;2024-02-26T03:02:12;13.63;;;12.20;;
34134;SDS011;20410;55.578;12.968;2024-02-26T03:04:38;13.57;;;12.27;;
34134;SDS011;20410;55.578;12.968;2024-02-26T03:07:04;13.23;;;11.93;;
34134;SDS011;20410;55.578;12.968;2024-02-26T03:09:29;15.73;;;14.10;;
34134;SDS011;20410;55.578;12.968;2024-02-26T03:11:55;15.60;;;14.03;;
34134;SDS011;20410;55.578;12.968;2024-02-26T03:14:20;15.63;;;14.03;;
34134;SDS011;20410;55.578;12.968;2024-02-26T03:16:46;15.50;;;13.97;;
34134;SDS011;20410;55.578;12.968;2024-02-26T03:19:14;17.37;;;15.53;;
34134;SDS011;20410;55.578;12.968;2024-02-26T03:21:41;17.93;;;16.10;;
34134;SDS011;20410;55.578;12.968;2024-02-26T03:24:07;18.90;;;16.90;;
34134;SDS011;20410;55.578;12.968;2024-02-26T03:26:35;22.00;;;18.23;;
34134;SDS011;20410;55.578;12.968;2024-02-26T03:29:01;18.83;;;16.07;;
34134;SDS011;20410;55.578;12.968;2024-02-26T03:31:28;17.50;;;15.73;;
34134;SDS011;20410;55.578;12.968;2024-02-26T03:33:53;18.27;;;16.37;;
34134;SDS011;20410;55.578;12.968;2024-02-26T03:36:19;16.73;;;15.03;;
34134;SDS011;20410;55.578;12.968;2024-02-26T03:38:46;22.03;;;17.77;;
34134;SDS011;20410;55.578;12.968;2024-02-26T03:41:12;19.87;;;17.63;;
34134;SDS011;20410;55.578;12.968;2024-02-26T03:43:38;15.17;;;13.67;;
34134;SDS011;20410;55.578;12.968;2024-02-26T03:46:03;16.97;;;15.23;;
34134;SDS011;20410;55.578;12.968;2024-02-26T03:48:31;17.73;;;15.90;;
34134;SDS011;20410;55.578;12.968;2024-02-26T03:50:57;14.60;;;13.23;;
34134;SDS011;20410;55.578;12.968;2024-02-26T03:53:22;16.83;;;14.47;;
34134;SDS011;20410;55.578;12.968;2024-02-26T03:55:48;18.57;;;16.67;;
34134;SDS011;20410;55.578;12.968;2024-02-26T03:58:14;17.60;;;15.73;;
34134;SDS011;20410;55.578;12.968;2024-02-26T04:00:47;17.47;;;15.73;;
34134;SDS011;20410;55.578;12.968;2024-02-26T04:03:15;18.47;;;16.47;;
34134;SDS011;20410;55.578;12.968;2024-02-26T04:05:41;18.37;;;16.23;;
34134;SDS011;20410;55.578;12.968;2024-02-26T04:08:07;20.50;;;18.33;;
34134;SDS011;20410;55.578;12.968;2024-02-26T04:10:33;19.43;;;17.43;;
34134;SDS011;20410;55.578;12.968;2024-02-26T04:13:04;18.67;;;16.77;;
34134;SDS011;20410;55.578;12.968;2024-02-26T04:15:31;16.70;;;14.90;;
34134;SDS011;20410;55.578;12.968;2024-02-26T04:17:57;17.07;;;15.37;;
34134;SDS011;20410;55.578;12.968;2024-02-26T04:20:22;17.13;;;15.40;;
34134;SDS011;20410;55.578;12.968;2024-02-26T04:22:48;19.50;;;17.60;;
34134;SDS011;20410;55.578;12.968;2024-02-26T04:25:13;19.13;;;17.13;;
34134;SDS011;20410;55.578;12.968;2024-02-26T04:27:40;20.13;;;17.13;;
34134;SDS011;20410;55.578;12.968;2024-02-26T04:30:06;19.20;;;17.20;;
34134;SDS011;20410;55.578;12.968;2024-02-26T04:32:32;20.50;;;18.40;;
34134;SDS011;20410;55.578;12.968;2024-02-26T04:34:59;20.00;;;18.00;;
34134;SDS011;20410;55.578;12.968;2024-02-26T04:37:25;20.40;;;18.20;;
34134;SDS011;20410;55.578;12.968;2024-02-26T04:39:55;18.40;;;16.47;;
34134;SDS011;20410;55.578;12.968;2024-02-26T04:42:24;19.87;;;17.93;;
34134;SDS011;20410;55.578;12.968;2024-02-26T04:44:50;18.57;;;16.67;;
34134;SDS011;20410;55.578;12.968;2024-02-26T04:47:16;16.77;;;15.07;;
34134;SDS011;20410;55.578;12.968;2024-02-26T04:49:41;18.73;;;16.83;;
34134;SDS011;20410;55.578;12.968;2024-02-26T04:52:07;23.00;;;20.80;;
34134;SDS011;20410;55.578;12.968;2024-02-26T04:54:33;21.93;;;19.67;;
34134;SDS011;20410;55.578;12.968;2024-02-26T04:56:58;22.20;;;19.57;;
34134;SDS011;20410;55.578;12.968;2024-02-26T04:59:24;20.50;;;18.40;;
34134;SDS011;20410;55.578;12.968;2024-02-26T05:01:49;21.77;;;19.53;;
34134;SDS011;20410;55.578;12.968;2024-02-26T05:04:17;22.13;;;19.50;;
34134;SDS011;20410;55.578;12.968;2024-02-26T05:06:43;23.03;;;20.00;;
34134;SDS011;20410;55.578;12.968;2024-02-26T05:09:09;22.63;;;19.40;;
34134;SDS011;20410;55.578;12.968;2024-02-26T05:11:34;23.60;;;21.10;;
34134;SDS011;20410;55.578;12.968;2024-02-26T05:14:00;22.00;;;19.57;;
34134;SDS011;20410;55.578;12.968;2024-02-26T05:16:26;21.67;;;19.23;;
34134;SDS011;20410;55.578;12.968;2024-02-26T05:18:52;20.63;;;18.43;;
34134;SDS011;20410;55.578;12.968;2024-02-26T05:21:23;22.13;;;19.77;;
34134;SDS011;20410;55.578;12.968;2024-02-26T05:23:49;22.90;;;20.33;;
34134;SDS011;20410;55.578;12.968;2024-02-26T05:26:28;23.77;;;21.33;;
34134;SDS011;20410;55.578;12.968;2024-02-26T05:28:59;24.97;;;22.27;;
34134;SDS011;20410;55.578;12.968;2024-02-26T05:31:50;27.43;;;22.87;;
34134;SDS011;20410;55.578;12.968;2024-02-26T05:35:07;21.30;;;19.10;;
34134;SDS011;20410;55.578;12.968;2024-02-26T05:37:35;21.90;;;19.00;;
34134;SDS011;20410;55.578;12.968;2024-02-26T05:40:03;25.53;;;22.83;;
34134;SDS011;20410;55.578;12.968;2024-02-26T05:42:44;22.23;;;18.73;;
34134;SDS011;20410;55.578;12.968;2024-02-26T05:45:14;21.20;;;19.10;;
34134;SDS011;20410;55.578;12.968;2024-02-26T05:47:51;22.43;;;20.00;;
34134;SDS011;20410;55.578;12.968;2024-02-26T05:50:35;22.43;;;20.23;;
34134;SDS011;20410;55.578;12.968;2024-02-26T05:53:25;21.80;;;19.47;;
34134;SDS011;20410;55.578;12.968;2024-02-26T05:55:56;22.50;;;20.20;;
34134;SDS011;20410;55.578;12.968;2024-02-26T05:58:54;23.03;;;20.63;;
34134;SDS011;20410;55.578;12.968;2024-02-26T06:08:15;28.70;;;23.73;;
34134;SDS011;20410;55.578;12.968;2024-02-26T06:10:50;25.43;;;22.10;;
34134;SDS011;20410;55.578;12.968;2024-02-26T06:13:15;23.10;;;20.53;;
34134;SDS011;20410;55.578;12.968;2024-02-26T06:15:51;23.07;;;20.50;;
34134;SDS011;20410;55.578;12.968;2024-02-26T06:18:30;23.60;;;21.10;;
34134;SDS011;20410;55.578;12.968;2024-02-26T06:20:56;24.77;;;22.17;;
34134;SDS011;20410;55.578;12.968;2024-02-26T06:23:22;23.03;;;20.53;;
34134;SDS011;20410;55.578;12.968;2024-02-26T06:25:51;25.57;;;22.60;;
34134;SDS011;20410;55.578;12.968;2024-02-26T06:28:17;20.07;;;18.07;;
34134;SDS011;20410;55.578;12.968;2024-02-26T06:30:43;23.27;;;20.50;;
34134;SDS011;20410;55.578;12.968;2024-02-26T06:33:11;25.37;;;22.37;;
34134;SDS011;20410;55.578;12.968;2024-02-26T06:35:39;23.23;;;20.67;;
34134;SDS011;20410;55.578;12.968;2024-02-26T06:38:11;25.47;;;22.70;;
34134;SDS011;20410;55.578;12.968;2024-02-26T06:40:39;22.57;;;19.70;;
34134;SDS011;20410;55.578;12.968;2024-02-26T06:43:07;21.80;;;19.40;;
34134;SDS011;20410;55.578;12.968;2024-02-26T06:45:33;23.00;;;20.50;;
34134;SDS011;20410;55.578;12.968;2024-02-26T06:47:58;25.17;;;20.50;;
34134;SDS011;20410;55.578;12.968;2024-02-26T06:50:24;21.37;;;19.13;;
34134;SDS011;20410;55.578;12.968;2024-02-26T06:52:50;22.97;;;20.57;;
34134;SDS011;20410;55.578;12.968;2024-02-26T06:55:15;21.73;;;19.20;;
34134;SDS011;20410;55.578;12.968;2024-02-26T06:57:41;23.40;;;20.87;;
34134;SDS011;20410;55.578;12.968;2024-02-26T07:00:06;20.23;;;18.13;;
34134;SDS011;20410;55.578;12.968;2024-02-26T07:02:32;23.33;;;20.87;;
34134;SDS011;20410;55.578;12.968;2024-02-26T07:04:58;23.63;;;21.10;;
34134;SDS011;20410;55.578;12.968;2024-02-26T07:07:24;24.93;;;21.93;;
34134;SDS011;20410;55.578;12.968;2024-02-26T07:09:50;26.57;;;23.63;;
34134;SDS011;20410;55.578;12.968;2024-02-26T07:12:15;26.13;;;23.37;;
34134;SDS011;20410;55.578;12.968;2024-02-26T07:14:41;24.63;;;22.03;;
34134;SDS011;20410;55.578;12.968;2024-02-26T07:17:07;25.33;;;22.67;;
34134;SDS011;20410;55.578;12.968;2024-02-26T07:19:33;23.90;;;21.40;;
34134;SDS011;20410;55.578;12.968;2024-02-26T07:21:59;25.20;;;22.43;;
34134;SDS011;20410;55.578;12.968;2024-02-26T07:24:26;28.87;;;23.93;;
34134;SDS011;20410;55.578;12.968;2024-02-26T07:26:53;31.03;;;26.97;;
34134;SDS011;20410;55.578;12.968;2024-02-26T07:29:20;32.67;;;26.67;;
34134;SDS011;20410;55.578;12.968;2024-02-26T07:31:46;29.93;;;25.07;;
34134;SDS011;20410;55.578;12.968;2024-02-26T07:34:12;31.07;;;27.10;;
34134;SDS011;20410;55.578;12.968;2024-02-26T07:36:38;33.93;;;28.47;;
34134;SDS011;20410;55.578;12.968;2024-02-26T07:39:04;29.93;;;25.70;;
34134;SDS011;20410;55.578;12.968;2024-02-26T07:41:30;31.97;;;26.93;;
34134;SDS011;20410;55.578;12.968;2024-02-26T07:43:56;32.13;;;27.63;;
34134;SDS011;20410;55.578;12.968;2024-02-26T07:46:21;35.83;;;28.73;;
34134;SDS011;20410;55.578;12.968;2024-02-26T07:48:47;28.00;;;23.67;;
34134;SDS011;20410;55.578;12.968;2024-02-26T07:51:13;27.10;;;23.47;;
34134;SDS011;20410;55.578;12.968;2024-02-26T07:53:39;27.90;;;24.90;;
34134;SDS011;20410;55.578;12.968;2024-02-26T07:56:05;30.33;;;25.23;;
34134;SDS011;20410;55.578;12.968;2024-02-26T07:58:34;24.60;;;22.00;;
34134;SDS011;20410;55.578;12.968;2024-02-26T08:00:59;25.23;;;22.53;;
34134;SDS011;20410;55.578;12.968;2024-02-26T08:03:25;28.80;;;24.80;;
34134;SDS011;20410;55.578;12.968;2024-02-26T08:05:51;24.73;;;22.17;;
34134;SDS011;20410;55.578;12.968;2024-02-26T08:08:16;27.87;;;24.80;;
34134;SDS011;20410;55.578;12.968;2024-02-26T08:10:42;29.13;;;25.93;;
34134;SDS011;20410;55.578;12.968;2024-02-26T08:13:08;33.33;;;25.97;;
34134;SDS011;20410;55.578;12.968;2024-02-26T08:15:34;26.37;;;23.57;;
34134;SDS011;20410;55.578;12.968;2024-02-26T08:18:02;22.73;;;20.33;;
34134;SDS011;20410;55.578;12.968;2024-02-26T08:20:28;29.50;;;26.20;;
34134;SDS011;20410;55.578;12.968;2024-02-26T08:22:57;29.27;;;23.83;;
34134;SDS011;20410;55.578;12.968;2024-02-26T08:25:23;29.20;;;25.73;;
34134;SDS011;20410;55.578;12.968;2024-02-26T08:27:49;26.97;;;24.20;;
34134;SDS011;20410;55.578;12.968;2024-02-26T08:30:15;28.00;;;24.93;;
34134;SDS011;20410;55.578;12.968;2024-02-26T08:32:45;28.67;;;23.77;;
34134;SDS011;20410;55.578;12.968;2024-02-26T09:40:50;22.90;;;18.80;;
34134;SDS011;20410;55.578;12.968;2024-02-26T09:43:34;20.23;;;18.13;;
34134;SDS011;20410;55.578;12.968;2024-02-26T09:46:17;21.80;;;19.70;;
34134;SDS011;20410;55.578;12.968;2024-02-26T09:48:45;19.53;;;17.47;;
34134;SDS011;20410;55.578;12.968;2024-02-26T09:52:06;21.73;;;17.33;;
34134;SDS011;20410;55.578;12.968;2024-02-26T09:55:06;19.53;;;17.43;;
34134;SDS011;20410;55.578;12.968;2024-02-26T10:46:46;13.87;;;12.57;;
34134;SDS011;20410;55.578;12.968;2024-02-26T10:49:15;12.73;;;11.30;;
34134;SDS011;20410;55.578;12.968;2024-02-26T10:51:45;12.87;;;11.00;;
34134;SDS011;20410;55.578;12.968;2024-02-26T10:54:15;12.67;;;11.20;;
34134;SDS011;20410;55.578;12.968;2024-02-26T10:56:47;13.30;;;11.87;;
34134;SDS011;20410;55.578;12.968;2024-02-26T10:59:18;11.13;;;10.03;;
34134;SDS011;20410;55.578;12.968;2024-02-26T11:01:45;12.73;;;11.43;;
34134;SDS011;20410;55.578;12.968;2024-02-26T11:04:14;12.53;;;10.97;;
34134;SDS011;20410;55.578;12.968;2024-02-26T11:06:52;11.17;;;10.07;;
34134;SDS011;20410;55.578;12.968;2024-02-26T11:09:21;11.43;;;10.23;;
34134;SDS011;20410;55.578;12.968;2024-02-26T11:11:48;10.87;;;9.77;;
34134;SDS011;20410;55.578;12.968;2024-02-26T11:14:15;10.27;;;7.57;;
34134;SDS011;20410;55.578;12.968;2024-02-26T11:16:41;8.27;;;7.50;;
34134;SDS011;20410;55.578;12.968;2024-02-26T11:19:08;9.87;;;8.87;;
34134;SDS011;20410;55.578;12.968;2024-02-26T11:21:36;9.67;;;8.67;;
34134;SDS011;20410;55.578;12.968;2024-02-26T11:24:15;8.37;;;7.57;;
34134;SDS011;20410;55.578;12.968;2024-02-26T11:26:54;9.13;;;8.33;;
34134;SDS011;20410;55.578;12.968;2024-02-26T11:29:42;8.80;;;8.00;;
34134;SDS011;20410;55.578;12.968;2024-02-26T11:32:16;8.30;;;7.47;;
34134;SDS011;20410;55.578;12.968;2024-02-26T11:44:04;12.17;;;10.87;;
34134;SDS011;20410;55.578;12.968;2024-02-26T11:51:51;14.47;;;12.97;;
34134;SDS011;20410;55.578;12.968;2024-02-26T11:58:15;13.77;;;12.27;;
34134;SDS011;20410;55.578;12.968;2024-02-26T12:22:13;16.53;;;14.83;;
34134;SDS011;20410;55.578;12.968;2024-02-26T12:45:05;14.90;;;13.13;;
34134;SDS011;20410;55.578;12.968;2024-02-26T13:01:49;18.50;;;16.50;;
34134;SDS011;20410;55.578;12.968;2024-02-26T13:45:53;15.47;;;13.90;;
34134;SDS011;20410;55.578;12.968;2024-02-26T14:05:55;14.27;;;12.87;;
34134;SDS011;20410;55.578;12.968;2024-02-26T14:08:22;13.93;;;12.40;;
34134;SDS011;20410;55.578;12.968;2024-02-26T14:10:48;14.87;;;13.37;;
34134;SDS011;20410;55.578;12.968;2024-02-26T14:13:14;13.90;;;12.50;;
34134;SDS011;20410;55.578;12.968;2024-02-26T14:15:39;14.90;;;13.13;;
34134;SDS011;20410;55.578;12.968;2024-02-26T14:18:05;14.13;;;12.73;;
34134;SDS011;20410;55.578;12.968;2024-02-26T14:20:32;14.83;;;12.93;;
34134;SDS011;20410;55.578;12.968;2024-02-26T14:22:58;13.93;;;12.53;;
34134;SDS011;20410;55.578;12.968;2024-02-26T14:25:23;11.27;;;10.17;;
34134;SDS011;20410;55.578;12.968;2024-02-26T14:27:49;11.00;;;9.90;;
34134;SDS011;20410;55.578;12.968;2024-02-26T14:30:15;10.50;;;9.40;;
34134;SDS011;20410;55.578;12.968;2024-02-26T14:32:41;12.60;;;10.50;;
34134;SDS011;20410;55.578;12.968;2024-02-26T14:35:07;10.37;;;9.20;;
34134;SDS011;20410;55.578;12.968;2024-02-26T14:37:33;10.03;;;9.13;;
34134;SDS011;20410;55.578;12.968;2024-02-26T14:40:00;10.50;;;9.50;;
34134;SDS011;20410;55.578;12.968;2024-02-26T14:42:25;9.30;;;8.33;;
34134;SDS011;20410;55.578;12.968;2024-02-26T14:44:51;10.97;;;9.47;;
34134;SDS011;20410;55.578;12.968;2024-02-26T14:47:16;8.93;;;7.97;;
34134;SDS011;20410;55.578;12.968;2024-02-26T14:49:42;8.70;;;7.90;;
34134;SDS011;20410;55.578;12.968;2024-02-26T14:52:08;9.47;;;7.10;;
34134;SDS011;20410;55.578;12.968;2024-02-26T14:54:34;7.40;;;6.50;;
34134;SDS011;20410;55.578;12.968;2024-02-26T14:57:03;7.53;;;6.70;;
34134;SDS011;20410;55.578;12.968;2024-02-26T14:59:30;6.40;;;5.90;;
34134;SDS011;20410;55.578;12.968;2024-02-26T15:01:56;5.90;;;5.40;;
34134;SDS011;20410;55.578;12.968;2024-02-26T15:04:22;5.77;;;4.87;;
34134;SDS011;20410;55.578;12.968;2024-02-26T15:06:48;6.80;;;5.27;;
34134;SDS011;20410;55.578;12.968;2024-02-26T15:09:13;4.97;;;4.50;;
34134;SDS011;20410;55.578;12.968;2024-02-26T15:11:39;4.70;;;4.30;;
34134;SDS011;20410;55.578;12.968;2024-02-26T15:14:06;5.93;;;4.67;;
34134;SDS011;20410;55.578;12.968;2024-02-26T15:16:32;3.67;;;3.37;;
34134;SDS011;20410;55.578;12.968;2024-02-26T15:18:58;4.87;;;3.87;;
34134;SDS011;20410;55.578;12.968;2024-02-26T15:21:23;4.67;;;3.57;;
34134;SDS011;20410;55.578;12.968;2024-02-26T15:23:49;5.70;;;3.90;;
34134;SDS011;20410;55.578;12.968;2024-02-26T15:26:15;4.43;;;3.20;;
34134;SDS011;20410;55.578;12.968;2024-02-26T15:28:42;3.50;;;3.20;;
34134;SDS011;20410;55.578;12.968;2024-02-26T15:31:08;4.30;;;3.83;;
34134;SDS011;20410;55.578;12.968;2024-02-26T15:33:34;6.50;;;4.20;;
34134;SDS011;20410;55.578;12.968;2024-02-26T15:35:59;4.50;;;3.80;;
34134;SDS011;20410;55.578;12.968;2024-02-26T15:38:25;5.67;;;4.87;;
34134;SDS011;20410;55.578;12.968;2024-02-26T15:40:52;4.63;;;4.03;;
34134;SDS011;20410;55.578;12.968;2024-02-26T15:43:17;4.47;;;4.07;;
34134;SDS011;20410;55.578;12.968;2024-02-26T15:45:44;6.83;;;4.70;;
34134;SDS011;20410;55.578;12.968;2024-02-26T15:48:10;7.47;;;4.20;;
34134;SDS011;20410;55.578;12.968;2024-02-26T15:50:36;5.20;;;4.70;;
34134;SDS011;20410;55.578;12.968;2024-02-26T15:53:03;4.10;;;3.70;;
34134;SDS011;20410;55.578;12.968;2024-02-26T15:55:28;4.60;;;4.20;;
34134;SDS011;20410;55.578;12.968;2024-02-26T15:57:54;6.43;;;3.80;;
34134;SDS011;20410;55.578;12.968;2024-02-26T16:00:20;4.23;;;3.37;;
34134;SDS011;20410;55.578;12.968;2024-02-26T16:02:46;5.00;;;3.80;;
34134;SDS011;20410;55.578;12.968;2024-02-26T16:05:14;3.57;;;3.27;;
34134;SDS011;20410;55.578;12.968;2024-02-26T16:07:41;3.20;;;3.00;;
34134;SDS011;20410;55.578;12.968;2024-02-26T16:10:11;3.57;;;3.33;;
34134;SDS011;20410;55.578;12.968;2024-02-26T16:12:44;3.97;;;3.57;;
34134;SDS011;20410;55.578;12.968;2024-02-26T16:15:14;6.70;;;3.90;;
34134;SDS011;20410;55.578;12.968;2024-02-26T16:17:41;4.00;;;3.60;;
34134;SDS011;20410;55.578;12.968;2024-02-26T16:20:16;3.63;;;3.30;;
34134;SDS011;20410;55.578;12.968;2024-02-26T16:22:47;4.80;;;3.73;;
34134;SDS011;20410;55.578;12.968;2024-02-26T16:25:13;6.00;;;4.40;;
34134;SDS011;20410;55.578;12.968;2024-02-26T16:27:39;4.47;;;3.83;;
34134;SDS011;20410;55.578;12.968;2024-02-26T16:30:08;4.27;;;3.87;;
34134;SDS011;20410;55.578;12.968;2024-02-26T16:32:35;5.60;;;5.10;;
34134;SDS011;20410;55.578;12.968;2024-02-26T16:35:05;6.07;;;4.80;;
34134;SDS011;20410;55.578;12.968;2024-02-26T16:37:31;4.80;;;4.40;;
34134;SDS011;20410;55.578;12.968;2024-02-26T16:39:58;5.53;;;4.83;;
34134;SDS011;20410;55.578;12.968;2024-02-26T16:42:25;5.83;;;5.20;;
34134;SDS011;20410;55.578;12.968;2024-02-26T16:44:51;6.43;;;5.77;;
34134;SDS011;20410;55.578;12.968;2024-02-26T16:47:17;8.90;;;7.33;;
34134;SDS011;20410;55.578;12.968;2024-02-26T16:49:42;9.17;;;8.07;;
34134;SDS011;20410;55.578;12.968;2024-02-26T16:52:08;8.93;;;8.13;;
34134;SDS011;20410;55.578;12.968;2024-02-26T16:54:33;10.77;;;9.33;;
34134;SDS011;20410;55.578;12.968;2024-02-26T16:56:59;10.27;;;9.07;;
34134;SDS011;20410;55.578;12.968;2024-02-26T16:59:24;9.90;;;8.53;;
34134;SDS011;20410;55.578;12.968;2024-02-26T17:01:53;10.37;;;9.37;;
34134;SDS011;20410;55.578;12.968;2024-02-26T17:04:20;10.40;;;8.97;;
34134;SDS011;20410;55.578;12.968;2024-02-26T17:06:46;10.87;;;9.77;;
34134;SDS011;20410;55.578;12.968;2024-02-26T17:09:11;12.37;;;10.47;;
34134;SDS011;20410;55.578;12.968;2024-02-26T17:11:37;11.47;;;10.17;;
34134;SDS011;20410;55.578;12.968;2024-02-26T17:14:03;11.57;;;10.37;;
34134;SDS011;20410;55.578;12.968;2024-02-26T17:16:30;11.17;;;9.63;;
34134;SDS011;20410;55.578;12.968;2024-02-26T17:18:55;12.43;;;10.60;;
34134;SDS011;20410;55.578;12.968;2024-02-26T17:21:21;12.20;;;11.00;;
34134;SDS011;20410;55.578;12.968;2024-02-26T17:23:50;13.53;;;10.73;;
34134;SDS011;20410;55.578;12.968;2024-02-26T17:26:20;12.60;;;11.17;;
34134;SDS011;20410;55.578;12.968;2024-02-26T17:28:46;14.43;;;12.93;;
34134;SDS011;20410;55.578;12.968;2024-02-26T17:31:12;15.00;;;12.97;;
34134;SDS011;20410;55.578;12.968;2024-02-26T17:33:38;16.17;;;14.47;;
34134;SDS011;20410;55.578;12.968;2024-02-26T17:36:04;16.00;;;13.53;;
34134;SDS011;20410;55.578;12.968;2024-02-26T17:38:30;16.13;;;13.33;;
34134;SDS011;20410;55.578;12.968;2024-02-26T17:40:56;19.10;;;15.03;;
34134;SDS011;20410;55.578;12.968;2024-02-26T17:43:21;18.80;;;15.70;;
34134;SDS011;20410;55.578;12.968;2024-02-26T17:45:47;17.80;;;15.53;;
34134;SDS011;20410;55.578;12.968;2024-02-26T17:48:13;20.57;;;15.93;;
34134;SDS011;20410;55.578;12.968;2024-02-26T17:50:39;20.73;;;15.80;;
34134;SDS011;20410;55.578;12.968;2024-02-26T17:53:04;19.47;;;16.37;;
34134;SDS011;20410;55.578;12.968;2024-02-26T17:55:30;20.03;;;16.47;;
34134;SDS011;20410;55.578;12.968;2024-02-26T17:57:55;19.40;;;15.67;;
34134;SDS011;20410;55.578;12.968;2024-02-26T18:00:21;22.03;;;15.83;;
34134;SDS011;20410;55.578;12.968;2024-02-26T18:02:47;20.97;;;17.50;;
34134;SDS011;20410;55.578;12.968;2024-02-26T18:05:12;18.67;;;16.00;;
34134;SDS011;20410;55.578;12.968;2024-02-26T18:07:39;23.07;;;18.33;;
34134;SDS011;20410;55.578;12.968;2024-02-26T18:10:05;23.03;;;18.80;;
34134;SDS011;20410;55.578;12.968;2024-02-26T18:12:37;22.57;;;18.67;;
34134;SDS011;20410;55.578;12.968;2024-02-26T18:15:05;23.70;;;18.43;;
34134;SDS011;20410;55.578;12.968;2024-02-26T18:17:32;25.67;;;19.77;;
34134;SDS011;20410;55.578;12.968;2024-02-26T18:19:59;23.60;;;19.97;;
34134;SDS011;20410;55.578;12.968;2024-02-26T18:22:25;27.33;;;20.27;;
34134;SDS011;20410;55.578;12.968;2024-02-26T18:24:51;26.53;;;20.50;;
34134;SDS011;20410;55.578;12.968;2024-02-26T18:27:17;24.83;;;21.47;;
34134;SDS011;20410;55.578;12.968;2024-02-26T18:29:43;30.00;;;21.33;;
34134;SDS011;20410;55.578;12.968;2024-02-26T18:32:09;35.33;;;23.00;;
34134;SDS011;20410;55.578;12.968;2024-02-26T18:34:34;31.50;;;22.13;;
34134;SDS011;20410;55.578;12.968;2024-02-26T18:37:02;29.60;;;21.00;;